M I D A S
Marine Information and Data Acquisition System
Tripno 1637 of the Zeeleeuw from 2009-01-30 08:06:06 to 2009-01-30 14:33:32
Back to CruiseResearch ActivitiesStationsMapUnderway DataData graphs

EquipmentUnitsComment
TimeDGPSUTC
LatitudeDGPSDM.mWGS84
LongitudeDGPSDM.mWGS84
HeadingGyrodeg 
SOGDGPSknotsSpeed over ground
COGDGPSdegCourse over ground
DepthEcho soundermeters200 kHz
Missing or incorrect values are displayed as -999
Navigation data collected by the RV Zeeleeuw from 2009-01-30 08:08:23 to 2009-01-30 14:40:02
Time Latitude Longitude Heading SOG COG Depth
2009-01-30 08:09:28 51°13.677 2°55.917 116.2 2.7 302 -999
2009-01-30 08:10:29 51°13.699 2°55.83 96.3 3.5 281 -999
2009-01-30 08:11:28 51°13.7 2°55.76 72.2 0.8 295 12.1
2009-01-30 08:12:28 51°13.713 2°55.763 0.6 1.5 188 11.4
2009-01-30 08:13:28 51°13.736 2°55.73 324 4.7 322 10.2
2009-01-30 08:14:28 51°13.819 2°55.643 331.8 6.7 332 8.5
2009-01-30 08:15:28 51°13.93 2°55.558 335.4 7.8 333 8.5
2009-01-30 08:16:28 51°14.052 2°55.47 337.8 8.3 336 8.5
2009-01-30 08:17:28 51°14.178 2°55.368 331.5 8.6 328 8.5
2009-01-30 08:18:28 51°14.293 2°55.218 316.7 9.2 312 8.7
2009-01-30 08:19:28 51°14.388 2°55.011 306.6 10.1 309 9.1
2009-01-30 08:20:28 51°14.519 2°54.83 329.9 10.8 325 8.6
2009-01-30 08:21:28 51°14.679 2°54.667 335.1 11.9 329 8
2009-01-30 08:22:28 51°14.847 2°54.492 331.5 12.1 327 7.9
2009-01-30 08:23:28 51°15.013 2°54.324 333.4 11.7 328 6.3
2009-01-30 08:24:28 51°15.186 2°54.16 333.1 12.3 328 9.9
2009-01-30 08:25:28 51°15.36 2°53.995 335.7 12.2 330 9.9
2009-01-30 08:26:27 51°15.535 2°53.842 338.6 12.2 332 9.9
2009-01-30 08:27:28 51°15.718 2°53.69 339.1 12.2 332 9.3
2009-01-30 08:28:28 51°15.896 2°53.533 339.2 12.3 331 9.6
2009-01-30 08:29:28 51°16.077 2°53.376 338.5 12.4 331 9.9
2009-01-30 08:30:28 51°16.257 2°53.216 338 12.4 331 10.1
2009-01-30 08:31:28 51°16.437 2°53.055 337.5 12.4 330 10.2
2009-01-30 08:32:28 51°16.616 2°52.896 336.5 12.2 331 9.8
2009-01-30 08:33:28 51°16.795 2°52.751 339.3 11.8 334 8
2009-01-30 08:34:28 51°16.974 2°52.617 340.1 12 335 8.2
2009-01-30 08:35:27 51°17.151 2°52.485 341 12 335 8.2
2009-01-30 08:36:28 51°17.335 2°52.347 340.4 12.1 335 8.6
2009-01-30 08:37:28 51°17.513 2°52.198 335.8 12.1 332 8.7
2009-01-30 08:38:28 51°17.688 2°52.037 334.8 12.1 328 8.5
2009-01-30 08:39:28 51°17.859 2°51.872 335.4 12.1 329 8.5
2009-01-30 08:40:28 51°18.031 2°51.7 333.7 12.2 328 8.9
2009-01-30 08:41:28 51°18.205 2°51.528 336.5 12.3 329 9.8
2009-01-30 08:42:28 51°18.378 2°51.346 332.1 12.5 325 11.1
2009-01-30 08:43:28 51°18.55 2°51.16 332.8 12.5 326 12.1
2009-01-30 08:44:28 51°18.719 2°50.966 331.1 12.5 323 12.7
2009-01-30 08:45:28 51°18.888 2°50.77 332.8 12.5 325 13.1
2009-01-30 08:46:28 51°19.06 2°50.579 331.7 12.6 325 12.7
2009-01-30 08:47:28 51°19.228 2°50.38 331.2 12.6 322 11
2009-01-30 08:48:28 51°19.399 2°50.186 332.5 12.7 324 9.9
2009-01-30 08:49:28 51°19.569 2°49.986 331.7 12.7 325 11.8
2009-01-30 08:50:28 51°19.742 2°49.792 331.7 12.7 325 12.9
2009-01-30 08:51:28 51°19.922 2°49.607 334.5 12.9 326 15.6
2009-01-30 08:52:28 51°20.1 2°49.41 333.7 13.1 324 18.4
2009-01-30 08:53:28 51°20.276 2°49.204 333.4 13.1 325 20.7
2009-01-30 08:54:28 51°20.454 2°49.004 334 13 325 21.1
2009-01-30 08:55:28 51°20.631 2°48.804 333.1 13 324 21
2009-01-30 08:56:28 51°20.805 2°48.598 333.1 12.9 325 20
2009-01-30 08:57:28 51°20.981 2°48.403 334 12.9 326 18.6
2009-01-30 08:58:28 51°21.159 2°48.21 334.5 13 325 18.5
2009-01-30 08:59:28 51°21.343 2°48.029 336.8 13 327 20.9
2009-01-30 09:00:28 51°21.525 2°47.838 334.7 13.1 327 20.9
2009-01-30 09:01:28 51°21.706 2°47.649 334.1 13.1 327 22.7
2009-01-30 09:02:28 51°21.889 2°47.463 334.9 12.9 328 22.3
2009-01-30 09:03:28 51°22.07 2°47.276 334.1 12.9 327 22.2
2009-01-30 09:04:28 51°22.25 2°47.096 337.6 12.7 328 17.2
2009-01-30 09:05:29 51°22.428 2°46.907 332.3 12.8 324 17.7
2009-01-30 09:06:28 51°22.598 2°46.714 332.4 12.7 324 19.1
2009-01-30 09:07:28 51°22.765 2°46.507 331.7 12.7 323 18.9
2009-01-30 09:08:28 51°22.931 2°46.302 330.5 12.6 324 23.2
2009-01-30 09:09:28 51°23.1 2°46.1 331.2 12.7 324 23.8
2009-01-30 09:10:28 51°23.271 2°45.905 333.7 12.5 326 24.4
2009-01-30 09:11:28 51°23.442 2°45.716 331.4 12.6 323 25.5
2009-01-30 09:12:28 51°23.611 2°45.519 331.9 12.6 324 25.8
2009-01-30 09:13:28 51°23.781 2°45.327 331.7 12.5 324 25.5
2009-01-30 09:14:28 51°23.955 2°45.142 333.9 12.5 327 25.2
2009-01-30 09:15:28 51°24.127 2°44.96 334.6 12.3 326 24.7
2009-01-30 09:16:28 51°24.3 2°44.785 337.7 12.2 329 24.7
2009-01-30 09:17:28 51°24.471 2°44.608 334.1 12.3 325 23.7
2009-01-30 09:18:28 51°24.641 2°44.424 334.2 12.4 325 22.5
2009-01-30 09:19:28 51°24.816 2°44.253 337 12.4 328 21.2
2009-01-30 09:20:28 51°24.988 2°44.074 336.2 12.4 327 19.5
2009-01-30 09:21:28 51°25.161 2°43.902 336.3 12.2 326 21.4
2009-01-30 09:22:28 51°25.329 2°43.717 334.1 12.2 326 20.7
2009-01-30 09:23:28 51°25.499 2°43.54 335.4 12.2 326 21.1
2009-01-30 09:24:28 51°25.668 2°43.359 336.9 12.3 328 23.1
2009-01-30 09:25:28 51°25.84 2°43.186 337 12.2 327 25.3
2009-01-30 09:26:28 51°26.008 2°43.002 333.8 12.3 324 20.5
2009-01-30 09:27:27 51°26.178 2°42.832 337 12.2 329 25.6
2009-01-30 09:28:27 51°26.35 2°42.661 336.4 12.2 328 25.1
2009-01-30 09:29:27 51°26.521 2°42.486 335.7 12.2 327 25.7
2009-01-30 09:30:28 51°26.695 2°42.31 337 12.1 329 29.5
2009-01-30 09:31:27 51°26.866 2°42.146 336.9 12.1 328 29.3
2009-01-30 09:32:28 51°27.043 2°41.98 337.7 12.1 329 29.2
2009-01-30 09:33:27 51°27.213 2°41.824 338.1 12 331 29.6
2009-01-30 09:34:28 51°27.392 2°41.665 339.8 12.1 331 30.7
2009-01-30 09:35:27 51°27.564 2°41.507 338.8 12.1 329 30.9
2009-01-30 09:36:27 51°27.736 2°41.343 336.3 12.1 327 26.2
2009-01-30 09:37:28 51°27.908 2°41.173 337.9 11.9 331 28
2009-01-30 09:38:27 51°28.076 2°41.014 338.5 12 330 29.3
2009-01-30 09:39:27 51°28.25 2°40.862 337.7 11.9 331 30.2
2009-01-30 09:40:27 51°28.428 2°40.733 351.2 11.6 347 33.6
2009-01-30 09:41:27 51°28.617 2°40.688 3.6 11.4 357 32.8
2009-01-30 09:42:27 51°28.802 2°40.707 11.3 11.2 5 34.1
2009-01-30 09:43:28 51°28.991 2°40.738 12.6 11.1 6 33.8
2009-01-30 09:44:27 51°29.15 2°40.851 39.2 10.5 41 32.2
2009-01-30 09:45:27 51°29.247 2°41.084 61.8 10.6 62 32
2009-01-30 09:46:28 51°29.331 2°41.343 62 10.8 61 32.5
2009-01-30 09:47:27 51°29.418 2°41.585 59.4 10.7 58 31.2
2009-01-30 09:48:27 51°29.508 2°41.831 60.6 10.7 60 32.3
2009-01-30 09:49:27 51°29.592 2°42.083 62.1 10.6 62 29.7
2009-01-30 09:50:27 51°29.675 2°42.336 61.8 10.7 61 33.9
2009-01-30 09:51:27 51°29.77 2°42.579 57.9 10.7 57 34.8
2009-01-30 09:52:27 51°29.863 2°42.822 59.9 10.7 59 33.1
2009-01-30 09:53:27 51°29.952 2°43.064 59.5 10.5 60 30.2
2009-01-30 09:54:27 51°30.039 2°43.308 60.5 10.5 60 30.3
2009-01-30 09:55:27 51°30.129 2°43.549 59.8 10.6 62 30.3
2009-01-30 09:56:28 51°30.217 2°43.799 59.4 10.6 60 31.7
2009-01-30 09:57:28 51°30.305 2°44.045 60.7 10.6 61 32.5
2009-01-30 09:58:28 51°30.394 2°44.289 59.8 10.5 60 32.4
2009-01-30 09:59:28 51°30.481 2°44.535 60.9 10.5 61 29.2
2009-01-30 10:00:29 51°30.577 2°44.776 57 10.5 58 30.1
2009-01-30 10:01:28 51°30.665 2°45.013 59.8 10.6 59 32
2009-01-30 10:02:28 51°30.758 2°45.255 58.2 10.7 58 32.6
2009-01-30 10:03:28 51°30.849 2°45.495 58.3 10.6 59 35.7
2009-01-30 10:04:27 51°30.939 2°45.735 59.5 10.6 59 28.7
2009-01-30 10:05:28 51°31.03 2°45.981 59.5 10.6 60 30.5
2009-01-30 10:06:28 51°31.116 2°46.228 60.1 10.6 60 28.8
2009-01-30 10:07:28 51°31.206 2°46.468 58.1 10.5 59 27.6
2009-01-30 10:08:28 51°31.297 2°46.707 59.1 10.4 59 26.8
2009-01-30 10:09:29 51°31.387 2°46.95 59.9 10.5 60 28.6
2009-01-30 10:10:28 51°31.469 2°47.193 61.6 10.6 63 28.4
2009-01-30 10:11:27 51°31.553 2°47.436 60.6 10.6 62 27.9
2009-01-30 10:12:26 51°31.639 2°47.678 60.4 10.7 60 29.5
2009-01-30 10:13:25 51°31.727 2°47.918 58.5 10.5 59 31.6
2009-01-30 10:14:25 51°31.82 2°48.157 59.8 10.6 60 30.4
2009-01-30 10:15:25 51°31.908 2°48.405 58.6 10.6 59 32.7
2009-01-30 10:16:25 51°31.995 2°48.652 59 10.5 58 30.1
2009-01-30 10:17:25 51°32.086 2°48.892 57.8 10.6 59 30.5
2009-01-30 10:18:25 51°32.175 2°49.137 58.3 10.5 58 32.2
2009-01-30 10:19:25 51°32.266 2°49.377 58.2 10.5 58 27.8
2009-01-30 10:20:25 51°32.355 2°49.622 59.8 10.7 60 29.1
2009-01-30 10:21:25 51°32.445 2°49.865 58.7 10.6 59 30.3
2009-01-30 10:22:25 51°32.535 2°50.108 59.3 10.7 61 30.7
2009-01-30 10:23:25 51°32.622 2°50.353 58.8 10.7 60 30.2
2009-01-30 10:24:24 51°32.702 2°50.602 61.8 10.7 62 32.1
2009-01-30 10:25:25 51°32.791 2°50.854 58.2 10.6 60 33
2009-01-30 10:26:24 51°32.881 2°51.093 57.8 10.6 58 31.7
2009-01-30 10:27:25 51°32.971 2°51.344 59.7 10.6 59 28.7
2009-01-30 10:28:25 51°33.059 2°51.59 60 10.7 61 30.7
2009-01-30 10:29:25 51°33.148 2°51.838 60.1 10.8 61 32.3
2009-01-30 10:30:25 51°33.236 2°52.088 59.7 10.7 60 28.4
2009-01-30 10:31:25 51°33.322 2°52.337 60.7 10.8 60 30.5
2009-01-30 10:32:25 51°33.411 2°52.579 58 10.6 59 30.6
2009-01-30 10:33:25 51°33.5 2°52.823 59.1 10.6 59 29.8
2009-01-30 10:34:25 51°33.593 2°53.064 58.2 10.6 59 28.5
2009-01-30 10:35:25 51°33.68 2°53.312 60.5 10.6 62 29.4
2009-01-30 10:36:25 51°33.768 2°53.557 59.8 10.7 61 31
2009-01-30 10:37:25 51°33.857 2°53.803 58.3 10.6 58 29.5
2009-01-30 10:38:25 51°33.943 2°54.051 60.6 10.7 62 30
2009-01-30 10:39:25 51°34.032 2°54.294 58.6 10.6 60 30.1
2009-01-30 10:40:25 51°34.119 2°54.538 58.8 10.5 58 29
2009-01-30 10:41:24 51°34.207 2°54.777 58.2 10.5 59 30.1
2009-01-30 10:42:25 51°34.296 2°55.025 59.9 10.6 61 29.7
2009-01-30 10:43:25 51°34.38 2°55.274 61.4 10.5 62 30.8
2009-01-30 10:44:25 51°34.463 2°55.521 60 10.5 61 31.8
2009-01-30 10:45:25 51°34.547 2°55.768 59.8 10.5 61 30.1
2009-01-30 10:46:25 51°34.631 2°56.015 59.8 10.5 61 32.2
2009-01-30 10:47:25 51°34.717 2°56.259 59.1 10.6 60 31.8
2009-01-30 10:48:25 51°34.808 2°56.497 56.9 10.5 58 33
2009-01-30 10:49:25 51°34.898 2°56.738 58.3 10.5 59 33.5
2009-01-30 10:50:25 51°34.984 2°56.983 60.6 10.6 62 32.6
2009-01-30 10:51:25 51°35.069 2°57.228 60.2 10.5 64 33.3
2009-01-30 10:52:25 51°35.112 2°57.502 81.7 10.7 87 28.8
2009-01-30 10:53:25 51°35.081 2°57.789 102.3 11.3 110 29.8
2009-01-30 10:54:25 51°35.007 2°58.067 105.1 11.3 113 25.1
2009-01-30 10:55:25 51°34.931 2°58.344 104.8 11.3 113 28.7
2009-01-30 10:56:25 51°34.855 2°58.623 107.6 11.5 116 27.8
2009-01-30 10:57:26 51°34.751 2°58.892 115.9 11.7 123 27.9
2009-01-30 10:58:25 51°34.64 2°59.143 121.8 11.8 130 25.5
2009-01-30 10:59:25 51°34.503 2°59.378 124.4 12.1 134 24.6
2009-01-30 11:00:24 51°34.357 2°59.597 130.3 12.4 139 22.1
2009-01-30 11:01:25 51°34.2 2°59.82 131.2 12.5 139 18.8
2009-01-30 11:02:24 51°34.047 3°0.037 130.1 12.5 137 15.6
2009-01-30 11:03:25 51°33.894 3°0.273 130.2 12.7 137 12.5
2009-01-30 11:04:24 51°33.742 3°0.501 131.1 12.8 137 12
2009-01-30 11:05:24 51°33.569 3°0.707 143.6 12.9 154 28
2009-01-30 11:06:26 51°33.355 3°0.806 163.9 13.1 175 33.1
2009-01-30 11:07:25 51°33.141 3°0.746 195.2 13.7 200 33.2
2009-01-30 11:08:24 51°32.938 3°0.587 208.6 13.9 213 32.5
2009-01-30 11:09:25 51°32.745 3°0.364 215.8 14.1 219 31.2
2009-01-30 11:10:25 51°32.566 3°0.121 219.1 14.1 222 32.4
2009-01-30 11:11:25 51°32.389 2°59.87 221.5 14.2 222 31.9
2009-01-30 11:12:25 51°32.228 2°59.595 230.1 14.1 231 31.5
2009-01-30 11:13:26 51°32.085 2°59.289 236.4 14.1 235 30.7
2009-01-30 11:14:24 51°31.954 2°58.993 236 14.1 234 31.5
2009-01-30 11:15:26 51°31.815 2°58.677 240.7 14 238 31.7
2009-01-30 11:16:25 51°31.704 2°58.357 243 13.9 240 32
2009-01-30 11:17:26 51°31.583 2°58.034 241.3 13.9 239 33
2009-01-30 11:18:25 51°31.466 2°57.719 240.2 14 238 34.2
2009-01-30 11:19:25 51°31.35 2°57.398 240.8 14 239 32.5
2009-01-30 11:20:25 51°31.231 2°57.077 241.3 14 241 31.4
2009-01-30 11:21:25 51°31.114 2°56.752 241.4 14.2 240 31.2
2009-01-30 11:22:26 51°30.99 2°56.426 240.2 14 238 32.3
2009-01-30 11:23:25 51°30.871 2°56.111 239.5 14.1 239 34.8
2009-01-30 11:24:26 51°30.756 2°55.778 244 14.1 241 36.8
2009-01-30 11:25:25 51°30.649 2°55.452 243.7 14 243 38.2
2009-01-30 11:26:25 51°30.537 2°55.128 241.2 13.8 240 35.8
2009-01-30 11:27:25 51°30.425 2°54.803 241 14 240 33.4
2009-01-30 11:28:25 51°30.313 2°54.476 242.3 13.9 242 33.2
2009-01-30 11:29:26 51°30.195 2°54.151 238.4 13.9 239 32.3
2009-01-30 11:30:25 51°30.075 2°53.841 237.8 14 237 31.9
2009-01-30 11:31:26 51°29.954 2°53.52 239.4 13.9 240 31.9
2009-01-30 11:32:26 51°29.841 2°53.196 241.7 13.9 240 31.3
2009-01-30 11:33:25 51°29.729 2°52.878 241.3 13.9 240 31.2
2009-01-30 11:34:25 51°29.612 2°52.557 240.5 13.9 240 30.6
2009-01-30 11:35:25 51°29.499 2°52.233 241.5 14 240 29.9
2009-01-30 11:36:25 51°29.43 2°51.886 265.1 13.7 263 30.2
2009-01-30 11:37:25 51°29.466 2°51.538 291.3 13.2 286 28.1
2009-01-30 11:38:25 51°29.559 2°51.228 312 12.6 307 29.5
2009-01-30 11:39:25 51°29.69 2°50.973 318.5 12.4 310 29.1
2009-01-30 11:40:25 51°29.848 2°50.86 20.7 10 21 29.4
2009-01-30 11:41:25 51°29.952 2°51.062 71.5 10.5 76 27.8
2009-01-30 11:42:25 51°29.979 2°51.348 82.3 11 89 28.6
2009-01-30 11:43:26 51°29.95 2°51.647 99.8 11.4 105 30.1
2009-01-30 11:44:25 51°29.901 2°51.935 100.1 11.3 105 30.7
2009-01-30 11:45:26 51°29.848 2°52.233 100.8 11.5 106 29.9
2009-01-30 11:46:25 51°29.817 2°52.523 87.3 11.1 89 29.6
2009-01-30 11:47:25 51°29.866 2°52.801 64.3 10.9 66 30.2
2009-01-30 11:48:25 51°29.948 2°53.062 63.3 11 65 30.1
2009-01-30 11:49:26 51°30.017 2°53.34 68.2 11 69 30.6
2009-01-30 11:50:25 51°30.084 2°53.607 68.5 11 70 31.5
2009-01-30 11:51:26 51°30.148 2°53.888 67.8 11 70 31.3
2009-01-30 11:52:25 51°30.214 2°54.157 65.1 11 67 32.3
2009-01-30 11:53:24 51°30.285 2°54.424 65.7 11.1 66 33.2
2009-01-30 11:54:26 51°30.369 2°54.698 63.6 11.1 64 34.1
2009-01-30 11:55:25 51°30.449 2°54.96 65.1 11.2 64 35.1
2009-01-30 11:56:26 51°30.533 2°55.231 62 11.1 62 36.6
2009-01-30 11:57:25 51°30.616 2°55.491 62.4 11.1 63 37.8
2009-01-30 11:58:26 51°30.693 2°55.763 63.3 10.8 64 37.1
2009-01-30 11:59:24 51°30.784 2°56.002 56.8 10.9 57 35.4
2009-01-30 12:00:26 51°30.876 2°56.259 61.4 10.6 61 33.6
2009-01-30 12:01:26 51°30.956 2°56.512 61.3 10.6 64 33.2
2009-01-30 12:02:25 51°31.038 2°56.758 60.6 10.6 62 32.8
2009-01-30 12:03:26 51°31.124 2°57.01 60.5 10.6 61 31.7
2009-01-30 12:04:25 51°31.21 2°57.251 60 10.6 61 32.1
2009-01-30 12:05:26 51°31.292 2°57.508 61.4 10.7 62 32
2009-01-30 12:06:25 51°31.375 2°57.754 61.4 10.7 62 29.8
2009-01-30 12:07:26 51°31.461 2°58.01 59.8 10.7 60 31
2009-01-30 12:08:25 51°31.548 2°58.256 59 10.9 62 30.8
2009-01-30 12:09:26 51°31.638 2°58.516 59.7 10.9 63 30.3
2009-01-30 12:10:26 51°31.721 2°58.772 60.6 11 63 29.9
2009-01-30 12:11:25 51°31.801 2°59.032 61.8 11.1 64 29.8
2009-01-30 12:12:26 51°31.886 2°59.297 61.2 11 63 29.8
2009-01-30 12:13:25 51°31.971 2°59.552 59.8 11 62 29.7
2009-01-30 12:14:26 51°32.055 2°59.818 59.2 11 62 29.1
2009-01-30 12:15:25 51°32.141 3°0.073 59.2 11.1 61 28.6
2009-01-30 12:16:26 51°32.23 3°0.339 59.1 11.2 61 27.6
2009-01-30 12:17:26 51°32.313 3°0.61 59.9 11.3 61 26
2009-01-30 12:18:26 51°32.397 3°0.88 62 11.3 64 24.9
2009-01-30 12:19:26 51°32.49 3°1.144 59.2 11.5 62 25.1
2009-01-30 12:20:25 51°32.58 3°1.404 59.5 11.4 63 25.3
2009-01-30 12:21:26 51°32.671 3°1.679 60.2 11.5 63 22.9
2009-01-30 12:22:25 51°32.76 3°1.943 58.5 11.4 61 23.7
2009-01-30 12:23:26 51°32.852 3°2.217 59 11.6 63 23
2009-01-30 12:24:24 51°32.853 3°2.512 102.4 12.2 111 22.2
2009-01-30 12:25:26 51°32.698 3°2.737 152.7 12.8 160 22.9
2009-01-30 12:26:26 51°32.481 3°2.758 178.1 13.1 180 26
2009-01-30 12:27:26 51°32.262 3°2.748 180.1 13.1 184 27.9
2009-01-30 12:28:26 51°32.048 3°2.725 177.8 12.9 182 28.8
2009-01-30 12:29:25 51°31.836 3°2.699 179.9 13 185 27.9
2009-01-30 12:30:26 51°31.617 3°2.674 179.8 13 185 27.9
2009-01-30 12:31:26 51°31.401 3°2.652 179.3 13 185 28.2
2009-01-30 12:32:26 51°31.184 3°2.622 183.2 13.1 187 28.2
2009-01-30 12:33:26 51°30.978 3°2.505 207.1 13.4 212 28.7
2009-01-30 12:34:26 51°30.801 3°2.29 219.2 13.4 221 28.5
2009-01-30 12:35:26 51°30.653 3°2.023 233.3 13.4 232 28.3
2009-01-30 12:36:24 51°30.536 3°1.732 239.1 13.5 239 28.2
2009-01-30 12:37:25 51°30.426 3°1.411 242.6 13.4 241 28.1
2009-01-30 12:38:25 51°30.317 3°1.097 240.2 13.4 239 27.9
2009-01-30 12:39:26 51°30.198 3°0.785 238 13.4 238 28.3
2009-01-30 12:40:26 51°30.081 3°0.483 239.3 13.4 240 28.3
2009-01-30 12:41:26 51°29.97 3°0.172 242 13.4 241 27.9
2009-01-30 12:42:26 51°29.858 2°59.863 240.2 13.4 239 27.6
2009-01-30 12:43:26 51°29.748 2°59.553 240.6 13.5 241 27.9
2009-01-30 12:44:26 51°29.633 2°59.247 238.7 13.4 240 28
2009-01-30 12:45:25 51°29.526 2°58.94 241.4 13.4 242 27.7
2009-01-30 12:46:26 51°29.415 2°58.624 239.8 13.3 238 27.5
2009-01-30 12:47:26 51°29.299 2°58.322 239.6 13.4 240 27.3
2009-01-30 12:48:26 51°29.192 2°58.011 241.2 13.4 240 26.9
2009-01-30 12:49:26 51°29.081 2°57.706 241.1 13.2 240 27.1
2009-01-30 12:50:26 51°28.968 2°57.403 239.8 13.2 240 26.9
2009-01-30 12:51:26 51°28.863 2°57.094 242.1 13.2 241 26.5
2009-01-30 12:52:25 51°28.757 2°56.791 241.3 13.2 242 27.1
2009-01-30 12:53:26 51°28.648 2°56.479 240.8 13.2 241 27.5
2009-01-30 12:54:25 51°28.539 2°56.182 238.9 13.2 239 26.4
2009-01-30 12:55:26 51°28.424 2°55.878 239.1 13 237 26.7
2009-01-30 12:56:25 51°28.312 2°55.591 241.4 12.9 238 26.9
2009-01-30 12:57:25 51°28.201 2°55.298 241.1 13 240 25.8
2009-01-30 12:58:26 51°28.09 2°54.997 240.6 12.8 238 24.7
2009-01-30 12:59:26 51°27.981 2°54.702 241.2 12.9 240 24
2009-01-30 13:00:26 51°27.869 2°54.41 239 12.9 237 24.4
2009-01-30 13:01:25 51°27.76 2°54.124 240.8 12.7 239 21.7
2009-01-30 13:02:26 51°27.648 2°53.829 240.6 12.7 238 24.2
2009-01-30 13:03:26 51°27.538 2°53.537 240.4 12.8 239 23
2009-01-30 13:04:26 51°27.426 2°53.247 240.6 12.7 239 25.5
2009-01-30 13:05:26 51°27.315 2°52.96 241.2 12.6 239 22.6
2009-01-30 13:06:26 51°27.204 2°52.674 239.3 12.7 238 22.2
2009-01-30 13:07:26 51°27.095 2°52.385 241.1 12.6 240 23.2
2009-01-30 13:08:26 51°26.986 2°52.096 240 12.7 237 26.6
2009-01-30 13:09:26 51°26.877 2°51.807 240.8 12.6 239 22.5
2009-01-30 13:10:25 51°26.771 2°51.526 238.3 12.5 239 26.1
2009-01-30 13:11:25 51°26.659 2°51.244 238.3 12.4 237 26.7
2009-01-30 13:12:26 51°26.55 2°50.96 239.5 12.2 238 25.9
2009-01-30 13:13:25 51°26.448 2°50.691 239.1 12 237 25.1
2009-01-30 13:14:26 51°26.343 2°50.415 241.7 11.8 241 25.1
2009-01-30 13:15:25 51°26.247 2°50.148 241.8 11.8 241 25.2
2009-01-30 13:16:26 51°26.147 2°49.875 239.9 11.7 240 24.9
2009-01-30 13:17:26 51°26.044 2°49.612 239.7 11.7 238 25.1
2009-01-30 13:18:26 51°25.944 2°49.346 240.8 11.6 237 25.1
2009-01-30 13:19:25 51°25.848 2°49.084 239.8 11.5 238 26.1
2009-01-30 13:20:25 51°25.743 2°48.826 237.9 11.6 237 25.9
2009-01-30 13:21:26 51°25.643 2°48.556 241.6 11.6 241 25.9
2009-01-30 13:22:25 51°25.546 2°48.295 241.1 11.7 241 25.9
2009-01-30 13:23:26 51°25.449 2°48.021 241.6 11.6 239 28.9
2009-01-30 13:24:25 51°25.351 2°47.76 240.8 11.6 241 28
2009-01-30 13:25:26 51°25.251 2°47.491 241.2 11.5 240 28.4
2009-01-30 13:26:25 51°25.154 2°47.234 238.3 11.4 237 26.9
2009-01-30 13:27:25 51°25.052 2°46.977 239.3 11.4 237 26.5
2009-01-30 13:28:26 51°24.955 2°46.713 240.5 11.3 240 27
2009-01-30 13:29:25 51°24.862 2°46.455 240 11.3 238 27
2009-01-30 13:30:26 51°24.767 2°46.191 241 11.2 241 26.8
2009-01-30 13:31:25 51°24.674 2°45.936 241.2 11.3 239 26.9
2009-01-30 13:32:26 51°24.577 2°45.675 240.5 11.3 239 28.1
2009-01-30 13:33:25 51°24.473 2°45.435 229.6 11.2 224 28.5
2009-01-30 13:34:26 51°24.309 2°45.285 202.1 11.4 198 28
2009-01-30 13:35:26 51°24.119 2°45.233 191.9 11.6 188 29
2009-01-30 13:36:26 51°23.931 2°45.3 159.2 12 152 29.2
2009-01-30 13:37:26 51°23.761 2°45.478 150.3 12.3 147 29.2
2009-01-30 13:38:26 51°23.587 2°45.647 153.6 12 149 29.4
2009-01-30 13:39:26 51°23.416 2°45.818 152.1 12.1 148 29.5
2009-01-30 13:40:26 51°23.245 2°45.99 150.8 12.3 147 28.2
2009-01-30 13:41:26 51°23.076 2°46.172 147.6 12.2 145 27.3
2009-01-30 13:42:25 51°22.915 2°46.368 147 12.4 143 26.7
2009-01-30 13:43:26 51°22.747 2°46.569 146.7 12.5 142 20
2009-01-30 13:44:25 51°22.584 2°46.763 148 12.4 143 23
2009-01-30 13:45:26 51°22.413 2°46.956 151.6 12.3 147 21.7
2009-01-30 13:46:26 51°22.243 2°47.141 150.5 12.4 145 21.9
2009-01-30 13:47:25 51°22.076 2°47.323 150.1 12.4 145 26.1
2009-01-30 13:48:26 51°21.903 2°47.512 150.8 12.1 145 26.5
2009-01-30 13:49:25 51°21.742 2°47.691 152.3 12 147 26.7
2009-01-30 13:50:26 51°21.574 2°47.873 151.6 12.1 146 25.8
2009-01-30 13:51:25 51°21.408 2°48.045 153 12 148 25
2009-01-30 13:52:26 51°21.237 2°48.228 150.8 12.2 146 23.4
2009-01-30 13:53:26 51°21.068 2°48.404 151.7 12.1 147 22.7
2009-01-30 13:54:26 51°20.901 2°48.577 152 11.9 148 23.5
2009-01-30 13:55:26 51°20.739 2°48.758 150.9 11.9 146 24.8
2009-01-30 13:56:26 51°20.578 2°48.944 150.5 11.9 145 25.4
2009-01-30 13:57:26 51°20.415 2°49.128 150.5 12 144 25.4
2009-01-30 13:58:25 51°20.252 2°49.301 152.7 12 147 24.7
2009-01-30 13:59:26 51°20.082 2°49.479 153.6 12 148 22.3
2009-01-30 14:00:26 51°19.912 2°49.649 153.2 12 148 19.9
2009-01-30 14:01:26 51°19.744 2°49.822 153.3 12.1 146 17.2
2009-01-30 14:02:26 51°19.572 2°49.984 156.3 12.1 150 16.3
2009-01-30 14:03:26 51°19.401 2°50.154 155.6 12.2 151 14.3
2009-01-30 14:04:26 51°19.224 2°50.313 156.3 12.2 150 14.8
2009-01-30 14:05:26 51°19.05 2°50.476 154.9 12.1 150 16.4
2009-01-30 14:06:26 51°18.877 2°50.637 155 12 147 17.3
2009-01-30 14:07:26 51°18.711 2°50.804 153.2 11.8 147 17.2
2009-01-30 14:08:26 51°18.548 2°50.981 151.5 11.8 146 16.7
2009-01-30 14:09:26 51°18.384 2°51.159 150.4 12.1 143 16.1
2009-01-30 14:10:26 51°18.219 2°51.34 152.3 12.1 145 15
2009-01-30 14:11:26 51°18.051 2°51.516 152.5 12 147 13.8
2009-01-30 14:12:25 51°17.887 2°51.69 152.8 12.1 147 13
2009-01-30 14:13:26 51°17.715 2°51.867 151.7 12.1 146 12.9
2009-01-30 14:14:25 51°17.552 2°52.042 152.9 11.9 148 13.3
2009-01-30 14:15:26 51°17.372 2°52.175 162.9 11.7 157 13.3
2009-01-30 14:16:26 51°17.191 2°52.289 166 11.7 159 13
2009-01-30 14:17:26 51°17.009 2°52.399 164.6 11.6 157 12.5
2009-01-30 14:18:26 51°16.83 2°52.519 162.8 11.7 158 12.7
2009-01-30 14:19:26 51°16.652 2°52.645 161.8 11.8 156 13.7
2009-01-30 14:20:26 51°16.471 2°52.764 163.6 11.7 156 14.5
2009-01-30 14:21:26 51°16.293 2°52.888 163.4 11.7 156 14.7
2009-01-30 14:22:26 51°16.116 2°53.022 163.6 11.6 155 14.6
2009-01-30 14:23:26 51°15.941 2°53.147 164.5 11.6 157 14.4
2009-01-30 14:24:26 51°15.764 2°53.276 163.1 11.7 155 13.9
2009-01-30 14:25:26 51°15.585 2°53.399 164 11.7 158 13.8
2009-01-30 14:26:26 51°15.405 2°53.52 162.6 11.7 153 13.2
2009-01-30 14:27:26 51°15.235 2°53.676 154.9 11.8 149 12.7
2009-01-30 14:28:26 51°15.068 2°53.841 154 11.8 146 12.7
2009-01-30 14:29:26 51°14.908 2°54.025 148 11.9 142 12.2
2009-01-30 14:30:26 51°14.763 2°54.246 142.5 12.2 134 12.8
2009-01-30 14:31:26 51°14.624 2°54.483 140.6 12.2 133 13.2
2009-01-30 14:32:26 51°14.503 2°54.751 126.9 12.6 122 13.6
2009-01-30 14:33:26 51°14.387 2°55.026 130.9 12.3 127 13.5
2009-01-30 14:34:26 51°14.265 2°55.239 132.7 9.1 134 13
2009-01-30 14:35:26 51°14.175 2°55.369 143.6 6.4 145 13.1
2009-01-30 14:36:26 51°14.082 2°55.443 154.4 6.6 155 12.8
2009-01-30 14:37:26 51°13.976 2°55.519 155.2 7.2 157 12.9
2009-01-30 14:38:26 51°13.865 2°55.603 153.7 7.3 154 12.7
2009-01-30 14:39:26 51°13.772 2°55.682 143.6 5.6 143 12.9